sensor_id;sensor_type;location;lat;lon;timestamp;temperature;humidity
1992;DHT22;997;48.448;8.924;2022-07-23T03:00:39;22.50;99.90
1992;DHT22;997;48.448;8.924;2022-07-23T03:03:04;22.70;99.90
1992;DHT22;997;48.448;8.924;2022-07-23T03:05:30;22.70;99.90
1992;DHT22;997;48.448;8.924;2022-07-23T03:07:56;22.70;99.90
1992;DHT22;997;48.448;8.924;2022-07-23T03:10:21;22.80;99.90
1992;DHT22;997;48.448;8.924;2022-07-23T03:12:47;22.80;99.90
1992;DHT22;997;48.448;8.924;2022-07-23T03:15:12;22.70;99.90
1992;DHT22;997;48.448;8.924;2022-07-23T03:17:38;22.60;99.90
1992;DHT22;997;48.448;8.924;2022-07-23T03:20:04;22.60;99.90
1992;DHT22;997;48.448;8.924;2022-07-23T03:22:32;22.60;99.90
1992;DHT22;997;48.448;8.924;2022-07-23T03:24:58;22.70;99.90
1992;DHT22;997;48.448;8.924;2022-07-23T03:27:25;22.80;99.90
1992;DHT22;997;48.448;8.924;2022-07-23T03:29:53;22.70;99.90
1992;DHT22;997;48.448;8.924;2022-07-23T03:32:19;22.70;99.90
1992;DHT22;997;48.448;8.924;2022-07-23T03:34:45;22.70;99.90
1992;DHT22;997;48.448;8.924;2022-07-23T03:37:11;22.70;99.90
1992;DHT22;997;48.448;8.924;2022-07-23T03:39:37;22.70;99.90
1992;DHT22;997;48.448;8.924;2022-07-23T03:42:06;22.80;99.90
1992;DHT22;997;48.448;8.924;2022-07-23T03:44:32;22.80;99.90
1992;DHT22;997;48.448;8.924;2022-07-23T03:46:57;22.80;99.90
1992;DHT22;997;48.448;8.924;2022-07-23T03:49:23;22.80;99.90
1992;DHT22;997;48.448;8.924;2022-07-23T03:51:49;22.70;99.90
1992;DHT22;997;48.448;8.924;2022-07-23T03:54:15;22.60;99.90
1992;DHT22;997;48.448;8.924;2022-07-23T03:56:40;22.50;99.90
1992;DHT22;997;48.448;8.924;2022-07-23T03:59:06;22.50;99.90
1992;DHT22;997;48.448;8.924;2022-07-23T04:01:32;22.40;99.90
1992;DHT22;997;48.448;8.924;2022-07-23T04:03:58;22.40;99.90
1992;DHT22;997;48.448;8.924;2022-07-23T04:06:23;22.30;99.90
1992;DHT22;997;48.448;8.924;2022-07-23T04:08:49;22.30;99.90
1992;DHT22;997;48.448;8.924;2022-07-23T04:11:15;22.30;99.90
1992;DHT22;997;48.448;8.924;2022-07-23T04:13:40;22.30;99.90
1992;DHT22;997;48.448;8.924;2022-07-23T04:16:06;22.40;99.90
1992;DHT22;997;48.448;8.924;2022-07-23T04:18:32;22.40;99.90
1992;DHT22;997;48.448;8.924;2022-07-23T04:20:58;22.50;99.90
1992;DHT22;997;48.448;8.924;2022-07-23T04:23:26;22.70;99.90
1992;DHT22;997;48.448;8.924;2022-07-23T04:25:52;22.80;99.90
1992;DHT22;997;48.448;8.924;2022-07-23T04:28:17;22.80;99.90
1992;DHT22;997;48.448;8.924;2022-07-23T04:30:43;22.80;99.90
1992;DHT22;997;48.448;8.924;2022-07-23T04:33:09;22.80;99.90
1992;DHT22;997;48.448;8.924;2022-07-23T04:35:35;22.60;99.90
1992;DHT22;997;48.448;8.924;2022-07-23T04:38:02;22.50;99.90
1992;DHT22;997;48.448;8.924;2022-07-23T04:40:28;22.40;99.90
1992;DHT22;997;48.448;8.924;2022-07-23T04:42:54;22.30;99.90
1992;DHT22;997;48.448;8.924;2022-07-23T04:45:20;22.30;99.90
1992;DHT22;997;48.448;8.924;2022-07-23T04:47:45;22.20;99.90
1992;DHT22;997;48.448;8.924;2022-07-23T04:50:11;22.10;99.90
1992;DHT22;997;48.448;8.924;2022-07-23T04:52:37;22.00;99.90
1992;DHT22;997;48.448;8.924;2022-07-23T04:55:03;21.80;99.90
1992;DHT22;997;48.448;8.924;2022-07-23T04:57:29;21.70;99.90
1992;DHT22;997;48.448;8.924;2022-07-23T04:59:55;21.70;99.90
1992;DHT22;997;48.448;8.924;2022-07-23T05:02:20;21.70;99.90
1992;DHT22;997;48.448;8.924;2022-07-23T05:04:46;21.80;99.90
1992;DHT22;997;48.448;8.924;2022-07-23T05:07:12;22.00;99.90
1992;DHT22;997;48.448;8.924;2022-07-23T05:09:37;22.00;99.90
1992;DHT22;997;48.448;8.924;2022-07-23T05:12:03;22.10;99.90
1992;DHT22;997;48.448;8.924;2022-07-23T05:14:29;22.10;99.90
1992;DHT22;997;48.448;8.924;2022-07-23T05:16:55;22.00;99.90
1992;DHT22;997;48.448;8.924;2022-07-23T05:19:21;21.80;99.90
1992;DHT22;997;48.448;8.924;2022-07-23T05:21:47;21.70;99.90
1992;DHT22;997;48.448;8.924;2022-07-23T05:24:12;21.70;99.90
1992;DHT22;997;48.448;8.924;2022-07-23T05:26:38;21.70;99.90
1992;DHT22;997;48.448;8.924;2022-07-23T05:29:04;21.70;99.90
1992;DHT22;997;48.448;8.924;2022-07-23T05:31:29;21.70;99.90
1992;DHT22;997;48.448;8.924;2022-07-23T05:33:55;21.70;99.90
1992;DHT22;997;48.448;8.924;2022-07-23T05:36:21;21.70;99.90
1992;DHT22;997;48.448;8.924;2022-07-23T05:38:46;21.70;99.90
1992;DHT22;997;48.448;8.924;2022-07-23T05:41:12;21.80;99.90
1992;DHT22;997;48.448;8.924;2022-07-23T05:43:38;21.90;99.90
1992;DHT22;997;48.448;8.924;2022-07-23T05:46:03;22.00;99.90
1992;DHT22;997;48.448;8.924;2022-07-23T05:48:29;22.20;99.90
1992;DHT22;997;48.448;8.924;2022-07-23T05:50:55;22.30;99.90
1992;DHT22;997;48.448;8.924;2022-07-23T05:53:20;22.40;99.90
1992;DHT22;997;48.448;8.924;2022-07-23T05:55:46;22.50;99.90
1992;DHT22;997;48.448;8.924;2022-07-23T05:58:12;22.60;99.90
1992;DHT22;997;48.448;8.924;2022-07-23T06:00:37;22.70;99.90
1992;DHT22;997;48.448;8.924;2022-07-23T06:03:03;22.90;99.90
1992;DHT22;997;48.448;8.924;2022-07-23T06:05:29;22.90;99.90
1992;DHT22;997;48.448;8.924;2022-07-23T06:07:54;23.10;99.90
1992;DHT22;997;48.448;8.924;2022-07-23T06:10:20;23.20;99.90
1992;DHT22;997;48.448;8.924;2022-07-23T06:12:46;23.50;99.90
1992;DHT22;997;48.448;8.924;2022-07-23T06:15:12;23.40;99.90
1992;DHT22;997;48.448;8.924;2022-07-23T06:17:38;23.50;99.90
1992;DHT22;997;48.448;8.924;2022-07-23T06:20:06;23.60;99.90
1992;DHT22;997;48.448;8.924;2022-07-23T06:22:32;23.50;99.90
1992;DHT22;997;48.448;8.924;2022-07-23T06:24:57;23.50;99.90
1992;DHT22;997;48.448;8.924;2022-07-23T06:27:23;23.60;99.90
1992;DHT22;997;48.448;8.924;2022-07-23T06:29:51;23.70;99.90
1992;DHT22;997;48.448;8.924;2022-07-23T06:32:16;23.80;99.90
1992;DHT22;997;48.448;8.924;2022-07-23T06:34:42;24.00;99.90
1992;DHT22;997;48.448;8.924;2022-07-23T06:37:08;23.90;99.90
1992;DHT22;997;48.448;8.924;2022-07-23T06:39:33;24.00;99.90
1992;DHT22;997;48.448;8.924;2022-07-23T06:41:59;24.00;99.90
1992;DHT22;997;48.448;8.924;2022-07-23T06:44:26;24.20;99.90
1992;DHT22;997;48.448;8.924;2022-07-23T06:46:52;24.30;99.90
1992;DHT22;997;48.448;8.924;2022-07-23T06:49:18;24.30;99.90
1992;DHT22;997;48.448;8.924;2022-07-23T06:51:44;24.40;99.90
1992;DHT22;997;48.448;8.924;2022-07-23T06:54:09;24.50;99.90
1992;DHT22;997;48.448;8.924;2022-07-23T06:56:35;24.50;99.90
1992;DHT22;997;48.448;8.924;2022-07-23T06:59:01;24.70;99.90
1992;DHT22;997;48.448;8.924;2022-07-23T07:01:27;24.90;99.90
1992;DHT22;997;48.448;8.924;2022-07-23T07:03:52;25.10;99.90
1992;DHT22;997;48.448;8.924;2022-07-23T07:06:18;25.30;99.90
1992;DHT22;997;48.448;8.924;2022-07-23T07:08:44;25.40;99.90
1992;DHT22;997;48.448;8.924;2022-07-23T07:11:10;25.60;99.90
1992;DHT22;997;48.448;8.924;2022-07-23T07:13:38;25.40;99.90
1992;DHT22;997;48.448;8.924;2022-07-23T07:16:04;25.50;99.90
1992;DHT22;997;48.448;8.924;2022-07-23T07:18:30;25.40;99.90
1992;DHT22;997;48.448;8.924;2022-07-23T07:20:56;25.40;99.90
1992;DHT22;997;48.448;8.924;2022-07-23T07:23:22;25.20;99.90
1992;DHT22;997;48.448;8.924;2022-07-23T07:25:48;25.20;99.90
1992;DHT22;997;48.448;8.924;2022-07-23T07:28:14;25.30;99.90
1992;DHT22;997;48.448;8.924;2022-07-23T07:30:40;25.40;99.90
1992;DHT22;997;48.448;8.924;2022-07-23T07:33:06;25.60;99.90
1992;DHT22;997;48.448;8.924;2022-07-23T07:35:31;25.60;99.90
1992;DHT22;997;48.448;8.924;2022-07-23T07:37:58;25.80;99.90
1992;DHT22;997;48.448;8.924;2022-07-23T07:40:24;26.00;99.90
1992;DHT22;997;48.448;8.924;2022-07-23T07:42:53;26.00;99.90
1992;DHT22;997;48.448;8.924;2022-07-23T07:45:21;25.90;99.90
1992;DHT22;997;48.448;8.924;2022-07-23T07:47:50;26.10;99.90
1992;DHT22;997;48.448;8.924;2022-07-23T07:50:16;26.20;99.90
1992;DHT22;997;48.448;8.924;2022-07-23T07:52:42;26.30;99.90
1992;DHT22;997;48.448;8.924;2022-07-23T07:55:09;26.40;99.90
1992;DHT22;997;48.448;8.924;2022-07-23T07:57:35;26.40;99.90
1992;DHT22;997;48.448;8.924;2022-07-23T08:00:02;26.50;99.90
1992;DHT22;997;48.448;8.924;2022-07-23T08:02:28;26.50;99.90
1992;DHT22;997;48.448;8.924;2022-07-23T08:04:54;26.60;99.90
1992;DHT22;997;48.448;8.924;2022-07-23T08:07:22;26.80;99.90
1992;DHT22;997;48.448;8.924;2022-07-23T08:09:48;26.90;99.90
1992;DHT22;997;48.448;8.924;2022-07-23T08:12:14;27.00;99.90
1992;DHT22;997;48.448;8.924;2022-07-23T08:14:39;26.90;99.90
1992;DHT22;997;48.448;8.924;2022-07-23T08:17:05;26.90;99.90
1992;DHT22;997;48.448;8.924;2022-07-23T08:19:35;26.90;99.90
1992;DHT22;997;48.448;8.924;2022-07-23T08:22:01;26.80;99.90
1992;DHT22;997;48.448;8.924;2022-07-23T08:24:27;26.70;99.90
1992;DHT22;997;48.448;8.924;2022-07-23T08:26:55;26.60;99.90
1992;DHT22;997;48.448;8.924;2022-07-23T08:29:20;26.50;99.90
1992;DHT22;997;48.448;8.924;2022-07-23T08:31:46;26.30;99.90
1992;DHT22;997;48.448;8.924;2022-07-23T08:34:12;26.40;99.90
1992;DHT22;997;48.448;8.924;2022-07-23T08:36:40;26.60;99.90
1992;DHT22;997;48.448;8.924;2022-07-23T08:39:06;26.40;99.90
1992;DHT22;997;48.448;8.924;2022-07-23T08:41:33;26.50;99.90
1992;DHT22;997;48.448;8.924;2022-07-23T08:43:59;26.60;99.90
1992;DHT22;997;48.448;8.924;2022-07-23T08:46:27;26.70;99.90
1992;DHT22;997;48.448;8.924;2022-07-23T08:48:54;26.70;99.90
1992;DHT22;997;48.448;8.924;2022-07-23T08:51:27;26.70;99.90
1992;DHT22;997;48.448;8.924;2022-07-23T08:54:00;26.90;99.90
1992;DHT22;997;48.448;8.924;2022-07-23T08:56:29;27.00;99.90
1992;DHT22;997;48.448;8.924;2022-07-23T08:58:55;27.10;99.90
1992;DHT22;997;48.448;8.924;2022-07-23T09:01:21;27.30;99.90
1992;DHT22;997;48.448;8.924;2022-07-23T09:03:46;27.40;99.90
1992;DHT22;997;48.448;8.924;2022-07-23T09:06:12;27.50;99.90
1992;DHT22;997;48.448;8.924;2022-07-23T09:08:40;27.70;99.90
1992;DHT22;997;48.448;8.924;2022-07-23T09:11:09;27.70;99.90
1992;DHT22;997;48.448;8.924;2022-07-23T09:13:52;27.80;99.90
1992;DHT22;997;48.448;8.924;2022-07-23T09:16:27;27.90;99.90
1992;DHT22;997;48.448;8.924;2022-07-23T09:19:00;27.70;99.90
1992;DHT22;997;48.448;8.924;2022-07-23T09:21:31;27.70;99.90
1992;DHT22;997;48.448;8.924;2022-07-23T09:26:39;27.80;99.90
1992;DHT22;997;48.448;8.924;2022-07-23T09:29:11;27.90;99.90
1992;DHT22;997;48.448;8.924;2022-07-23T09:31:57;28.10;99.90
1992;DHT22;997;48.448;8.924;2022-07-23T09:37:13;28.30;99.90
1992;DHT22;997;48.448;8.924;2022-07-23T09:39:40;28.40;99.90
1992;DHT22;997;48.448;8.924;2022-07-23T09:42:18;28.20;99.90
1992;DHT22;997;48.448;8.924;2022-07-23T09:44:47;28.20;99.90
1992;DHT22;997;48.448;8.924;2022-07-23T09:47:13;28.20;99.90
1992;DHT22;997;48.448;8.924;2022-07-23T09:49:39;28.30;99.90
1992;DHT22;997;48.448;8.924;2022-07-23T09:52:06;28.40;99.90
1992;DHT22;997;48.448;8.924;2022-07-23T09:54:36;28.40;99.90
1992;DHT22;997;48.448;8.924;2022-07-23T09:57:11;28.60;99.90
1992;DHT22;997;48.448;8.924;2022-07-23T09:59:43;28.70;99.90
1992;DHT22;997;48.448;8.924;2022-07-23T10:02:12;28.80;99.90
1992;DHT22;997;48.448;8.924;2022-07-23T10:04:38;28.80;99.90
1992;DHT22;997;48.448;8.924;2022-07-23T10:07:07;28.50;99.90
1992;DHT22;997;48.448;8.924;2022-07-23T10:09:39;28.40;99.90
1992;DHT22;997;48.448;8.924;2022-07-23T10:12:12;28.50;99.90
1992;DHT22;997;48.448;8.924;2022-07-23T10:14:50;28.50;99.90
1992;DHT22;997;48.448;8.924;2022-07-23T10:17:17;28.60;99.90
1992;DHT22;997;48.448;8.924;2022-07-23T10:19:44;28.50;99.90
1992;DHT22;997;48.448;8.924;2022-07-23T10:22:13;28.30;99.90
1992;DHT22;997;48.448;8.924;2022-07-23T10:36:09;28.80;99.90
1992;DHT22;997;48.448;8.924;2022-07-23T10:38:51;29.00;99.90
1992;DHT22;997;48.448;8.924;2022-07-23T10:41:31;28.90;99.90
1992;DHT22;997;48.448;8.924;2022-07-23T10:44:15;28.80;99.90
1992;DHT22;997;48.448;8.924;2022-07-23T10:47:01;28.80;99.90
1992;DHT22;997;48.448;8.924;2022-07-23T10:49:32;28.70;99.90
1992;DHT22;997;48.448;8.924;2022-07-23T10:57:28;28.60;99.90
1992;DHT22;997;48.448;8.924;2022-07-23T11:02:38;29.20;99.90
1992;DHT22;997;48.448;8.924;2022-07-23T11:05:13;29.30;99.90
1992;DHT22;997;48.448;8.924;2022-07-23T11:10:35;29.60;99.90
1992;DHT22;997;48.448;8.924;2022-07-23T11:26:43;29.80;99.90
1992;DHT22;997;48.448;8.924;2022-07-23T11:32:27;29.60;99.90
1992;DHT22;997;48.448;8.924;2022-07-23T11:34:54;29.50;99.90
1992;DHT22;997;48.448;8.924;2022-07-23T11:37:39;29.70;99.90
1992;DHT22;997;48.448;8.924;2022-07-23T11:40:11;29.80;99.90
1992;DHT22;997;48.448;8.924;2022-07-23T11:45:45;29.50;99.90
1992;DHT22;997;48.448;8.924;2022-07-23T11:48:23;29.70;99.90
1992;DHT22;997;48.448;8.924;2022-07-23T11:50:50;29.70;99.90
1992;DHT22;997;48.448;8.924;2022-07-23T11:53:24;29.60;99.90
1992;DHT22;997;48.448;8.924;2022-07-23T11:55:51;29.60;99.90
1992;DHT22;997;48.448;8.924;2022-07-23T11:58:17;29.80;99.90
1992;DHT22;997;48.448;8.924;2022-07-23T12:00:42;29.80;99.90
1992;DHT22;997;48.448;8.924;2022-07-23T12:03:08;30.00;99.90
1992;DHT22;997;48.448;8.924;2022-07-23T12:05:36;30.20;99.90
1992;DHT22;997;48.448;8.924;2022-07-23T12:08:07;30.30;99.90
1992;DHT22;997;48.448;8.924;2022-07-23T12:10:36;30.30;99.90
1992;DHT22;997;48.448;8.924;2022-07-23T12:17:59;30.40;99.90
1992;DHT22;997;48.448;8.924;2022-07-23T12:20:33;30.60;99.90
1992;DHT22;997;48.448;8.924;2022-07-23T12:23:02;30.70;99.90
1992;DHT22;997;48.448;8.924;2022-07-23T12:25:30;30.60;99.90
1992;DHT22;997;48.448;8.924;2022-07-23T12:28:08;30.70;99.90
1992;DHT22;997;48.448;8.924;2022-07-23T12:30:40;30.80;99.90
1992;DHT22;997;48.448;8.924;2022-07-23T12:33:08;30.90;99.90
1992;DHT22;997;48.448;8.924;2022-07-23T12:35:38;31.10;99.90
1992;DHT22;997;48.448;8.924;2022-07-23T12:38:08;30.90;99.90
1992;DHT22;997;48.448;8.924;2022-07-23T12:43:11;30.80;99.90
1992;DHT22;997;48.448;8.924;2022-07-23T12:45:48;30.80;99.90
1992;DHT22;997;48.448;8.924;2022-07-23T12:50:58;31.30;99.90
1992;DHT22;997;48.448;8.924;2022-07-23T12:58:25;31.50;99.90
1992;DHT22;997;48.448;8.924;2022-07-23T13:00:55;31.80;99.90
1992;DHT22;997;48.448;8.924;2022-07-23T13:03:22;31.90;99.90
1992;DHT22;997;48.448;8.924;2022-07-23T13:05:49;31.90;99.90
1992;DHT22;997;48.448;8.924;2022-07-23T13:08:15;31.70;99.90
1992;DHT22;997;48.448;8.924;2022-07-23T13:10:41;31.60;99.90
1992;DHT22;997;48.448;8.924;2022-07-23T13:13:13;31.50;99.90
1992;DHT22;997;48.448;8.924;2022-07-23T13:15:38;31.20;99.90
1992;DHT22;997;48.448;8.924;2022-07-23T13:18:04;31.20;99.90
1992;DHT22;997;48.448;8.924;2022-07-23T13:20:31;31.30;99.90
1992;DHT22;997;48.448;8.924;2022-07-23T13:22:59;31.20;99.90
1992;DHT22;997;48.448;8.924;2022-07-23T13:25:26;31.10;99.90
1992;DHT22;997;48.448;8.924;2022-07-23T13:27:52;31.20;99.90
1992;DHT22;997;48.448;8.924;2022-07-23T13:30:18;31.30;99.90
1992;DHT22;997;48.448;8.924;2022-07-23T13:32:44;31.20;99.90
1992;DHT22;997;48.448;8.924;2022-07-23T13:35:10;31.10;99.90
1992;DHT22;997;48.448;8.924;2022-07-23T13:37:37;30.90;99.90
1992;DHT22;997;48.448;8.924;2022-07-23T13:40:03;30.90;99.90
1992;DHT22;997;48.448;8.924;2022-07-23T13:42:29;30.80;99.90
1992;DHT22;997;48.448;8.924;2022-07-23T13:44:55;30.90;99.90
1992;DHT22;997;48.448;8.924;2022-07-23T13:47:21;31.00;99.90
1992;DHT22;997;48.448;8.924;2022-07-23T13:49:46;30.70;99.90
1992;DHT22;997;48.448;8.924;2022-07-23T13:52:12;30.90;99.90
1992;DHT22;997;48.448;8.924;2022-07-23T13:54:38;31.00;99.90
1992;DHT22;997;48.448;8.924;2022-07-23T13:57:04;31.20;99.90
1992;DHT22;997;48.448;8.924;2022-07-23T13:59:29;31.40;99.90
1992;DHT22;997;48.448;8.924;2022-07-23T14:01:55;31.30;99.90
1992;DHT22;997;48.448;8.924;2022-07-23T14:04:22;31.20;99.90
1992;DHT22;997;48.448;8.924;2022-07-23T14:06:48;31.30;99.90
1992;DHT22;997;48.448;8.924;2022-07-23T14:09:13;31.20;99.90
1992;DHT22;997;48.448;8.924;2022-07-23T14:11:39;31.20;99.90
1992;DHT22;997;48.448;8.924;2022-07-23T14:14:05;31.10;99.90
1992;DHT22;997;48.448;8.924;2022-07-23T14:16:30;31.10;99.90
1992;DHT22;997;48.448;8.924;2022-07-23T14:18:56;31.10;99.90
1992;DHT22;997;48.448;8.924;2022-07-23T14:21:22;31.00;99.90
1992;DHT22;997;48.448;8.924;2022-07-23T14:23:48;30.70;99.90
1992;DHT22;997;48.448;8.924;2022-07-23T14:26:13;30.50;99.90
1992;DHT22;997;48.448;8.924;2022-07-23T14:28:39;30.50;99.90
1992;DHT22;997;48.448;8.924;2022-07-23T14:31:05;30.40;99.90
1992;DHT22;997;48.448;8.924;2022-07-23T14:33:30;30.80;99.90
1992;DHT22;997;48.448;8.924;2022-07-23T14:35:56;31.30;99.90
1992;DHT22;997;48.448;8.924;2022-07-23T14:38:23;31.60;99.90
1992;DHT22;997;48.448;8.924;2022-07-23T14:40:49;32.00;99.90
1992;DHT22;997;48.448;8.924;2022-07-23T14:43:14;32.60;99.90
1992;DHT22;997;48.448;8.924;2022-07-23T14:45:40;32.90;99.70
1992;DHT22;997;48.448;8.924;2022-07-23T14:48:07;33.20;99.90
1992;DHT22;997;48.448;8.924;2022-07-23T14:50:33;33.60;99.50
1992;DHT22;997;48.448;8.924;2022-07-23T14:52:59;34.00;99.10
1992;DHT22;997;48.448;8.924;2022-07-23T14:55:24;34.30;96.60
1992;DHT22;997;48.448;8.924;2022-07-23T14:57:50;34.60;96.10
1992;DHT22;997;48.448;8.924;2022-07-23T15:00:18;35.00;95.30
1992;DHT22;997;48.448;8.924;2022-07-23T15:02:43;35.20;94.00
1992;DHT22;997;48.448;8.924;2022-07-23T15:05:09;35.40;93.30
1992;DHT22;997;48.448;8.924;2022-07-23T15:07:36;35.40;92.20
1992;DHT22;997;48.448;8.924;2022-07-23T15:10:02;35.60;92.10
1992;DHT22;997;48.448;8.924;2022-07-23T15:12:28;35.70;91.20
1992;DHT22;997;48.448;8.924;2022-07-23T15:14:59;35.60;90.00
1992;DHT22;997;48.448;8.924;2022-07-23T15:17:25;35.80;90.70
1992;DHT22;997;48.448;8.924;2022-07-23T15:19:51;36.00;90.40
1992;DHT22;997;48.448;8.924;2022-07-23T15:22:17;36.50;89.00
1992;DHT22;997;48.448;8.924;2022-07-23T15:24:43;36.50;87.00
1992;DHT22;997;48.448;8.924;2022-07-23T15:27:09;36.30;84.20
1992;DHT22;997;48.448;8.924;2022-07-23T15:29:34;36.00;83.50
1992;DHT22;997;48.448;8.924;2022-07-23T15:32:00;35.60;85.00
1992;DHT22;997;48.448;8.924;2022-07-23T15:34:26;35.10;86.10
1992;DHT22;997;48.448;8.924;2022-07-23T15:36:52;34.60;87.70
1992;DHT22;997;48.448;8.924;2022-07-23T15:39:18;34.20;89.10
1992;DHT22;997;48.448;8.924;2022-07-23T15:41:44;34.20;88.00
1992;DHT22;997;48.448;8.924;2022-07-23T15:44:09;34.50;87.10
1992;DHT22;997;48.448;8.924;2022-07-23T15:46:36;34.70;86.90
1992;DHT22;997;48.448;8.924;2022-07-23T15:49:01;35.00;86.60
1992;DHT22;997;48.448;8.924;2022-07-23T15:51:29;35.10;85.40
1992;DHT22;997;48.448;8.924;2022-07-23T15:53:56;35.00;81.50
1992;DHT22;997;48.448;8.924;2022-07-23T15:56:22;34.60;85.20
1992;DHT22;997;48.448;8.924;2022-07-23T15:58:48;34.30;86.40
1992;DHT22;997;48.448;8.924;2022-07-23T16:01:14;33.90;88.00
1992;DHT22;997;48.448;8.924;2022-07-23T16:03:39;33.60;88.20
1992;DHT22;997;48.448;8.924;2022-07-23T16:06:06;33.20;89.00
1992;DHT22;997;48.448;8.924;2022-07-23T16:08:32;32.90;89.90
1992;DHT22;997;48.448;8.924;2022-07-23T16:10:58;32.40;90.40
1992;DHT22;997;48.448;8.924;2022-07-23T16:13:25;32.00;91.50
1992;DHT22;997;48.448;8.924;2022-07-23T16:15:51;31.90;91.60
1992;DHT22;997;48.448;8.924;2022-07-23T16:18:19;31.60;91.80
1992;DHT22;997;48.448;8.924;2022-07-23T16:20:48;31.60;91.60
1992;DHT22;997;48.448;8.924;2022-07-23T16:23:14;31.50;92.70
1992;DHT22;997;48.448;8.924;2022-07-23T16:25:40;31.60;92.50
1992;DHT22;997;48.448;8.924;2022-07-23T16:28:06;31.40;92.50
1992;DHT22;997;48.448;8.924;2022-07-23T16:30:32;31.30;92.50
1992;DHT22;997;48.448;8.924;2022-07-23T16:33:00;31.30;93.60
1992;DHT22;997;48.448;8.924;2022-07-23T16:35:25;31.20;93.00
1992;DHT22;997;48.448;8.924;2022-07-23T16:37:52;31.20;93.90
1992;DHT22;997;48.448;8.924;2022-07-23T16:40:18;31.60;93.70
1992;DHT22;997;48.448;8.924;2022-07-23T16:42:43;32.60;93.30
1992;DHT22;997;48.448;8.924;2022-07-23T16:45:10;33.10;91.80
1992;DHT22;997;48.448;8.924;2022-07-23T16:47:36;33.00;91.70
1992;DHT22;997;48.448;8.924;2022-07-23T16:50:04;32.80;91.20
1992;DHT22;997;48.448;8.924;2022-07-23T16:52:30;32.60;91.30
1992;DHT22;997;48.448;8.924;2022-07-23T16:54:57;32.20;91.80
1992;DHT22;997;48.448;8.924;2022-07-23T16:57:22;32.00;92.10
1992;DHT22;997;48.448;8.924;2022-07-23T16:59:49;31.70;92.60
1992;DHT22;997;48.448;8.924;2022-07-23T17:02:15;31.40;93.00
1992;DHT22;997;48.448;8.924;2022-07-23T17:04:41;31.30;92.90
1992;DHT22;997;48.448;8.924;2022-07-23T17:07:08;31.10;93.10
1992;DHT22;997;48.448;8.924;2022-07-23T17:09:36;30.90;93.10
1992;DHT22;997;48.448;8.924;2022-07-23T17:12:02;30.80;94.40
1992;DHT22;997;48.448;8.924;2022-07-23T17:14:28;30.80;94.30
1992;DHT22;997;48.448;8.924;2022-07-23T17:16:54;31.10;93.40
1992;DHT22;997;48.448;8.924;2022-07-23T17:19:20;31.40;93.80
1992;DHT22;997;48.448;8.924;2022-07-23T17:21:45;32.00;92.80
1992;DHT22;997;48.448;8.924;2022-07-23T17:24:11;32.40;91.60
1992;DHT22;997;48.448;8.924;2022-07-23T17:26:38;32.70;91.30
1992;DHT22;997;48.448;8.924;2022-07-23T17:29:04;32.90;91.60
1992;DHT22;997;48.448;8.924;2022-07-23T17:31:30;33.00;91.50
1992;DHT22;997;48.448;8.924;2022-07-23T17:33:56;33.10;92.10
1992;DHT22;997;48.448;8.924;2022-07-23T17:36:22;33.00;91.10
1992;DHT22;997;48.448;8.924;2022-07-23T17:38:49;33.00;91.20
1992;DHT22;997;48.448;8.924;2022-07-23T17:41:16;33.10;90.90
1992;DHT22;997;48.448;8.924;2022-07-23T17:43:42;33.30;90.30
1992;DHT22;997;48.448;8.924;2022-07-23T17:46:08;33.00;88.50
1992;DHT22;997;48.448;8.924;2022-07-23T17:48:34;32.50;88.10
1992;DHT22;997;48.448;8.924;2022-07-23T17:50:59;32.10;88.60
1992;DHT22;997;48.448;8.924;2022-07-23T17:53:26;31.90;89.40
1992;DHT22;997;48.448;8.924;2022-07-23T17:55:52;31.40;89.30
1992;DHT22;997;48.448;8.924;2022-07-23T17:58:18;31.30;90.50
1992;DHT22;997;48.448;8.924;2022-07-23T18:00:45;31.10;90.70
1992;DHT22;997;48.448;8.924;2022-07-23T18:03:10;30.90;91.10
1992;DHT22;997;48.448;8.924;2022-07-23T18:05:37;30.90;91.20
1992;DHT22;997;48.448;8.924;2022-07-23T18:08:03;30.70;91.10
1992;DHT22;997;48.448;8.924;2022-07-23T18:10:31;30.50;91.40
1992;DHT22;997;48.448;8.924;2022-07-23T18:12:57;30.30;91.60
1992;DHT22;997;48.448;8.924;2022-07-23T18:15:23;30.20;92.30
1992;DHT22;997;48.448;8.924;2022-07-23T18:17:49;30.20;92.90
1992;DHT22;997;48.448;8.924;2022-07-23T18:20:15;30.30;93.10
1992;DHT22;997;48.448;8.924;2022-07-23T18:22:41;30.20;92.70
1992;DHT22;997;48.448;8.924;2022-07-23T18:25:09;30.20;93.00
1992;DHT22;997;48.448;8.924;2022-07-23T18:27:35;30.10;93.30
1992;DHT22;997;48.448;8.924;2022-07-23T18:30:02;30.00;94.20
1992;DHT22;997;48.448;8.924;2022-07-23T18:32:28;29.90;94.20
1992;DHT22;997;48.448;8.924;2022-07-23T18:34:53;29.80;94.60
1992;DHT22;997;48.448;8.924;2022-07-23T18:37:21;29.60;94.80
1992;DHT22;997;48.448;8.924;2022-07-23T18:39:47;29.30;95.20
1992;DHT22;997;48.448;8.924;2022-07-23T18:42:14;29.30;95.60
1992;DHT22;997;48.448;8.924;2022-07-23T18:44:40;29.30;95.80
1992;DHT22;997;48.448;8.924;2022-07-23T18:47:06;29.10;95.60
1992;DHT22;997;48.448;8.924;2022-07-23T18:49:33;28.90;96.00
1992;DHT22;997;48.448;8.924;2022-07-23T18:51:59;28.80;96.10
1992;DHT22;997;48.448;8.924;2022-07-23T18:54:25;28.80;96.20
1992;DHT22;997;48.448;8.924;2022-07-23T18:56:51;28.70;96.40
1992;DHT22;997;48.448;8.924;2022-07-23T18:59:17;28.70;96.40
1992;DHT22;997;48.448;8.924;2022-07-23T19:01:43;28.70;97.10
1992;DHT22;997;48.448;8.924;2022-07-23T19:04:10;28.60;96.60
1992;DHT22;997;48.448;8.924;2022-07-23T19:06:36;28.60;97.30
1992;DHT22;997;48.448;8.924;2022-07-23T19:09:03;28.40;97.40
1992;DHT22;997;48.448;8.924;2022-07-23T19:11:29;28.20;97.60
1992;DHT22;997;48.448;8.924;2022-07-23T19:13:54;28.20;98.00
1992;DHT22;997;48.448;8.924;2022-07-23T19:16:20;28.10;98.60
1992;DHT22;997;48.448;8.924;2022-07-23T19:18:46;28.10;98.40
1992;DHT22;997;48.448;8.924;2022-07-23T19:21:11;28.10;98.90
1992;DHT22;997;48.448;8.924;2022-07-23T19:23:37;28.10;98.90
1992;DHT22;997;48.448;8.924;2022-07-23T19:26:04;28.10;99.10
1992;DHT22;997;48.448;8.924;2022-07-23T19:28:30;28.10;99.30
1992;DHT22;997;48.448;8.924;2022-07-23T19:30:56;28.00;99.20
1992;DHT22;997;48.448;8.924;2022-07-23T19:33:22;28.10;99.60
1992;DHT22;997;48.448;8.924;2022-07-23T19:35:48;28.00;99.70
1992;DHT22;997;48.448;8.924;2022-07-23T19:38:15;28.00;99.70
1992;DHT22;997;48.448;8.924;2022-07-23T19:40:41;28.00;99.90
1992;DHT22;997;48.448;8.924;2022-07-23T19:43:08;28.00;99.90
1992;DHT22;997;48.448;8.924;2022-07-23T19:45:34;28.00;99.90
1992;DHT22;997;48.448;8.924;2022-07-23T19:48:00;28.00;99.90
1992;DHT22;997;48.448;8.924;2022-07-23T19:50:26;28.00;99.90
1992;DHT22;997;48.448;8.924;2022-07-23T19:52:54;27.90;99.90
1992;DHT22;997;48.448;8.924;2022-07-23T19:55:21;27.90;99.90
1992;DHT22;997;48.448;8.924;2022-07-23T19:57:47;27.90;99.90
1992;DHT22;997;48.448;8.924;2022-07-23T20:00:14;27.90;99.90
1992;DHT22;997;48.448;8.924;2022-07-23T20:02:41;27.90;99.90
1992;DHT22;997;48.448;8.924;2022-07-23T20:05:08;27.70;99.90
1992;DHT22;997;48.448;8.924;2022-07-23T20:07:34;27.80;99.90
1992;DHT22;997;48.448;8.924;2022-07-23T20:10:02;27.70;99.90
1992;DHT22;997;48.448;8.924;2022-07-23T20:12:28;27.80;99.90
1992;DHT22;997;48.448;8.924;2022-07-23T20:14:54;27.80;99.90
1992;DHT22;997;48.448;8.924;2022-07-23T20:17:19;27.70;99.90